Terminal Aerodrome Forecast
Issued by NWS Greer, SC

Home | Current Version | Previous Version | Text Only | Print | Product List | Glossary On
Versions: 1 2 3 4 5 6 7 8 9 10 11 12 13 14 15 16 17 18
687
FTUS42 KGSP 222320
TAFGSP
TAF
KGSP 222320Z 2300/2324 03005KT P6SM OVC050
      TEMPO 2300/2304 BKN003 OVC050
     FM230400 02004KT 4SM BR OVC003
     FM230700 03003KT 1 1/2SM BR BKN003
     FM231400 04003KT P6SM BKN003
     FM231600 06004KT P6SM BKN015
     FM231900 12004KT P6SM SCT050=

USA.gov is the U.S. government's official web portal to all federal, state and local government web resources and services.